Darrington, WA

9:43 AM PST on February 14, 2016 (GMT -0800)
Glacier View Internet | | Change Station
CLOSE
Current Station
Personal Weather Station
Location: Darrington, WA
Elevation: 549 ft
Nearby Weather Stations

Elev 549 ft 48.25 °N, 121.61 °W | Updated 13 minutes ago

Rain
Rain
42.2 °F
Feels Like 42 °F
N
0.0
Wind Variable Wind from SSW
Gusts 1.0 mph

Today
High -- | Low -- °F
--% Chance of Precip.
Yesterday
High -- | Low -- °F
Precip. -- in
Pressure 30.11 in
Visibility 10.0 miles
Clouds Overcast 900 ft
Windchill 42 °F
Dew Point 42 °F
Humidity 99%
Rainfall 0.02 in
Snow Depth Not available.
7:15 AM 5:26 PM
Waxing Crescent, 43% visible
METAR KAWO 141735Z AUTO 14011KT 10SM OVC009 09/06 A3011 RMK AO1
Pressure 30.11 in
Visibility 10.0 miles
Clouds Overcast 900 ft
Windchill 42 °F
Dew Point 42 °F
Humidity 99%
Rainfall 0.02 in
Snow Depth Not available.
7:15 AM 5:26 PM
Waxing Crescent, 43% visible
METAR KAWO 141735Z AUTO 14011KT 10SM OVC009 09/06 A3011 RMK AO1

10-Day Weather Forecast

Almanac

Astronomy

Feb. 14, 2016 Rise Set
Actual Time
Civil Twilight
Nautical Twilight
Astronomical Twilight
Moon
Length of Visible Light
Length of Day
Tomorrow will be .
, % of the Moon is Illuminated

Today's Extremes

State Highs State Lows

Community

WunderPhotos

Upload Photos

1,892,860 photos uploaded!

WunderBlog® & News

Nearby

Air Quality

  Air Quality AQ Index Pollutant
Not available.

Snow Depth

Station Depth Elevation

Earthquake Activity

City Distance Mag. Time & Date
Minimum magnitude displayed is 2.5.

Coastal Water Temperatures

Place Temperature

Stations

Nearby Weather Stations

Station Location Temp. Windchill Dew Point Humidity Wind Precip. Elev Updated Type
                   

Watches & Warnings

There are currently no watches in effect.